Time;durP1;ratioP1;P1;durP2;ratioP2;P2;SDS_P1;SDS_P2;PMS_P1;PMS_P2;Temp;Humidity;BMP_temperature;BMP_pressure;BME280_temperature;BME280_humidity;BME280_pressure;Samples;Min_cycle;Max_cycle;Signal;HPM_P1;HPM_P2
2022/04/14 00:02:22;;;;;;;265.93;143.43;;;;;;;;;;5075638;28;20491;-72
2022/04/14 00:04:50;;;;;;;232.13;136.50;;;;;;;;;;5075492;28;20564;-73
2022/04/14 00:07:17;;;;;;;233.10;141.80;;;;;;;;;;5095026;28;20451;-72
2022/04/14 00:09:47;;;;;;;155.60;131.63;;;;;;;;;;5095403;28;20447;-72
2022/04/14 00:12:15;;;;;;;151.70;136.03;;;;;;;;;;5095857;28;20506;-73
2022/04/14 00:14:42;;;;;;;154.70;126.93;;;;;;;;;;5095394;28;20706;-73
2022/04/14 00:17:12;;;;;;;216.73;135.63;;;;;;;;;;5095746;28;20459;-73
2022/04/14 00:19:40;;;;;;;212.50;132.63;;;;;;;;;;5095486;28;20451;-73
2022/04/14 00:22:07;;;;;;;213.57;129.83;;;;;;;;;;5095134;28;20914;-73
2022/04/14 00:24:36;;;;;;;212.23;136.90;;;;;;;;;;5095259;28;20447;-73
2022/04/14 00:27:05;;;;;;;235.53;145.07;;;;;;;;;;5095116;28;20467;-72
2022/04/14 00:29:33;;;;;;;219.60;137.73;;;;;;;;;;5095698;28;20485;-73
2022/04/14 00:32:01;;;;;;;194.00;146.10;;;;;;;;;;5095328;28;20802;-73
2022/04/14 00:34:29;;;;;;;224.10;137.13;;;;;;;;;;5095179;28;20455;-73
2022/04/14 00:36:56;;;;;;;200.83;129.63;;;;;;;;;;5095082;28;20459;-72
2022/04/14 00:39:25;;;;;;;208.13;142.50;;;;;;;;;;5095079;28;21055;-72
2022/04/14 00:41:53;;;;;;;203.80;134.47;;;;;;;;;;5099636;28;20479;-72
2022/04/14 00:44:22;;;;;;;217.90;135.07;;;;;;;;;;5095188;28;20448;-72
2022/04/14 00:46:51;;;;;;;230.83;144.20;;;;;;;;;;5094755;28;20550;-72
2022/04/14 00:49:20;;;;;;;223.70;136.33;;;;;;;;;;5095863;28;20541;-72
2022/04/14 00:51:48;;;;;;;222.40;131.40;;;;;;;;;;5095149;28;20673;-72
2022/04/14 00:54:16;;;;;;;208.87;134.40;;;;;;;;;;5095446;28;20490;-72
2022/04/14 00:56:44;;;;;;;195.30;140.13;;;;;;;;;;5095909;28;20467;-72
2022/04/14 00:59:12;;;;;;;183.10;137.20;;;;;;;;;;5094890;28;20864;-72
2022/04/14 01:01:44;;;;;;;206.83;125.33;;;;;;;;;;5094626;28;20604;-73
2022/04/14 01:04:21;;;;;;;209.37;124.60;;;;;;;;;;5095090;28;20444;-73
2022/04/14 01:06:52;;;;;;;126.17;114.57;;;;;;;;;;5099436;28;20527;-72
2022/04/14 01:09:20;;;;;;;183.77;135.93;;;;;;;;;;5098874;28;20842;-73
2022/04/14 01:11:48;;;;;;;216.50;142.67;;;;;;;;;;5098736;28;20480;-72
2022/04/14 01:14:26;;;;;;;212.20;132.60;;;;;;;;;;5098817;28;20451;-73
2022/04/14 01:16:56;;;;;;;199.13;125.83;;;;;;;;;;5098450;28;20459;-73
2022/04/14 01:19:24;;;;;;;212.87;128.30;;;;;;;;;;5099252;28;20462;-73
2022/04/14 01:21:55;;;;;;;245.13;127.83;;;;;;;;;;5098786;28;20491;-72
2022/04/14 01:24:24;;;;;;;244.93;131.20;;;;;;;;;;5098121;28;20473;-73
2022/04/14 01:26:56;;;;;;;270.63;142.70;;;;;;;;;;5097980;28;20451;-73
2022/04/14 01:29:24;;;;;;;268.97;128.30;;;;;;;;;;5098388;28;20798;-72
2022/04/14 01:31:57;;;;;;;227.33;133.57;;;;;;;;;;5098389;28;20458;-73
2022/04/14 01:34:25;;;;;;;204.03;135.13;;;;;;;;;;5098086;28;20553;-73
2022/04/14 01:36:53;;;;;;;248.80;132.63;;;;;;;;;;5098339;28;20520;-72
2022/04/14 01:39:21;;;;;;;244.90;123.77;;;;;;;;;;5098030;28;20459;-73
2022/04/14 01:41:50;;;;;;;276.90;136.07;;;;;;;;;;5098006;28;20934;-73
2022/04/14 01:44:18;;;;;;;274.40;134.67;;;;;;;;;;5077604;28;20456;-73
2022/04/14 01:46:46;;;;;;;179.40;134.47;;;;;;;;;;5077933;28;20465;-73
2022/04/14 01:49:15;;;;;;;160.20;133.00;;;;;;;;;;5085156;28;20482;-73
2022/04/14 01:51:42;;;;;;;145.83;130.07;;;;;;;;;;5097812;28;20528;-73
2022/04/14 01:54:11;;;;;;;171.77;132.43;;;;;;;;;;5098249;28;20462;-73
2022/04/14 01:56:41;;;;;;;186.67;127.07;;;;;;;;;;5098042;28;20508;-73
2022/04/14 01:59:12;;;;;;;172.53;124.13;;;;;;;;;;5098212;28;20509;-73
2022/04/14 02:01:40;;;;;;;210.43;138.07;;;;;;;;;;5097480;28;20592;-73
2022/04/14 02:04:10;;;;;;;214.00;128.17;;;;;;;;;;5098023;28;20456;-72
2022/04/14 02:06:38;;;;;;;208.40;131.07;;;;;;;;;;5096671;28;20451;-73
2022/04/14 02:09:06;;;;;;;210.93;125.53;;;;;;;;;;5097803;28;20790;-73
2022/04/14 02:11:35;;;;;;;211.40;124.90;;;;;;;;;;5096932;28;20517;-73
2022/04/14 02:14:03;;;;;;;186.40;129.03;;;;;;;;;;5096770;28;20869;-73
2022/04/14 02:16:32;;;;;;;213.70;133.20;;;;;;;;;;5096939;28;20755;-72
2022/04/14 02:19:00;;;;;;;180.20;131.00;;;;;;;;;;5097673;28;20830;-73
2022/04/14 02:21:30;;;;;;;143.03;124.27;;;;;;;;;;5096993;28;20475;-73
2022/04/14 02:23:59;;;;;;;213.10;128.87;;;;;;;;;;5097781;28;20462;-72
2022/04/14 02:26:27;;;;;;;234.83;124.97;;;;;;;;;;5097055;28;20947;-73
2022/04/14 02:28:55;;;;;;;211.37;139.33;;;;;;;;;;5096774;28;20468;-74
2022/04/14 02:31:23;;;;;;;234.33;137.83;;;;;;;;;;5096768;28;20526;-74
2022/04/14 02:33:53;;;;;;;243.13;131.67;;;;;;;;;;5096994;28;20432;-74
2022/04/14 02:36:26;;;;;;;250.00;136.40;;;;;;;;;;5107743;28;20483;-73
2022/04/14 02:38:54;;;;;;;170.27;126.03;;;;;;;;;;5117667;28;20528;-72
2022/04/14 02:41:23;;;;;;;199.43;126.93;;;;;;;;;;5116539;28;20494;-72
2022/04/14 02:43:54;;;;;;;225.07;127.20;;;;;;;;;;5096256;28;20539;-72
2022/04/14 02:46:22;;;;;;;222.80;125.37;;;;;;;;;;5096045;28;20457;-72
2022/04/14 02:48:50;;;;;;;193.97;123.63;;;;;;;;;;5095999;28;20554;-74
2022/04/14 02:51:19;;;;;;;221.20;138.03;;;;;;;;;;5096373;28;20457;-74
2022/04/14 02:53:52;;;;;;;229.90;137.03;;;;;;;;;;5096189;28;20547;-74
2022/04/14 02:56:23;;;;;;;200.33;124.13;;;;;;;;;;5096870;28;20463;-73
2022/04/14 02:58:54;;;;;;;240.03;139.57;;;;;;;;;;5096818;28;20470;-73
2022/04/14 03:01:22;;;;;;;231.10;139.77;;;;;;;;;;5096703;28;20844;-73
2022/04/14 03:03:50;;;;;;;237.97;142.53;;;;;;;;;;5096681;28;20788;-73
2022/04/14 03:06:21;;;;;;;233.20;139.27;;;;;;;;;;5097099;28;20448;-72
2022/04/14 03:08:53;;;;;;;222.83;128.90;;;;;;;;;;5096679;28;20463;-73
2022/04/14 03:11:23;;;;;;;243.10;132.53;;;;;;;;;;5096672;28;20444;-73
2022/04/14 03:13:51;;;;;;;218.43;130.57;;;;;;;;;;5096910;28;20874;-73
2022/04/14 03:16:19;;;;;;;213.73;132.47;;;;;;;;;;5096520;28;20455;-73
2022/04/14 03:18:47;;;;;;;182.93;133.37;;;;;;;;;;5096564;28;20447;-73
2022/04/14 03:21:15;;;;;;;205.83;127.13;;;;;;;;;;5096529;28;20538;-73
2022/04/14 03:23:50;;;;;;;193.53;136.87;;;;;;;;;;5096790;28;20452;-73
2022/04/14 03:26:20;;;;;;;218.87;134.23;;;;;;;;;;5096817;28;20451;-73
2022/04/14 03:28:47;;;;;;;236.00;127.93;;;;;;;;;;5095415;28;20463;-73
2022/04/14 03:31:15;;;;;;;232.47;135.93;;;;;;;;;;5096450;28;20889;-73
2022/04/14 03:33:43;;;;;;;237.57;128.87;;;;;;;;;;5096439;28;20791;-73
2022/04/14 03:36:13;;;;;;;232.40;128.43;;;;;;;;;;5105605;28;20446;-74
2022/04/14 03:38:44;;;;;;;234.03;128.33;;;;;;;;;;5116747;28;20928;-72
2022/04/14 03:41:14;;;;;;;139.57;125.07;;;;;;;;;;5116330;28;20466;-73
2022/04/14 03:43:43;;;;;;;126.80;113.70;;;;;;;;;;5097784;28;20811;-73
2022/04/14 03:46:15;;;;;;;182.77;134.37;;;;;;;;;;5095984;28;20539;-73
2022/04/14 03:48:51;;;;;;;160.10;142.40;;;;;;;;;;5095150;28;20467;-71
2022/04/14 03:51:24;;;;;;;198.70;133.30;;;;;;;;;;5096338;28;20542;-71
2022/04/14 03:53:52;;;;;;;224.53;132.27;;;;;;;;;;5095664;28;20452;-72
2022/04/14 03:56:22;;;;;;;141.20;126.10;;;;;;;;;;5094883;28;20547;-73
2022/04/14 03:58:53;;;;;;;184.83;127.17;;;;;;;;;;5095797;28;20514;-73
2022/04/14 04:01:21;;;;;;;186.97;124.77;;;;;;;;;;5096358;28;20471;-73
2022/04/14 04:03:48;;;;;;;207.60;128.03;;;;;;;;;;5095987;28;20452;-73
2022/04/14 04:06:17;;;;;;;196.60;125.43;;;;;;;;;;5096272;28;20555;-72
2022/04/14 04:08:45;;;;;;;218.27;128.53;;;;;;;;;;5096250;28;20565;-73
2022/04/14 04:11:12;;;;;;;207.57;124.83;;;;;;;;;;5094949;28;20475;-73
2022/04/14 04:13:42;;;;;;;235.67;132.37;;;;;;;;;;5095823;28;21108;-73
2022/04/14 04:16:10;;;;;;;190.57;122.73;;;;;;;;;;5095119;28;20479;-72
2022/04/14 04:18:41;;;;;;;207.47;112.43;;;;;;;;;;5096484;28;20543;-73
2022/04/14 04:21:09;;;;;;;210.53;123.77;;;;;;;;;;5095717;28;20483;-73
2022/04/14 04:23:37;;;;;;;227.27;128.97;;;;;;;;;;5095177;28;20467;-73
2022/04/14 04:26:05;;;;;;;219.97;121.50;;;;;;;;;;5096101;28;20460;-73
2022/04/14 04:28:33;;;;;;;253.77;127.17;;;;;;;;;;5095209;28;20451;-73
2022/04/14 04:31:03;;;;;;;221.40;123.10;;;;;;;;;;5096179;28;20471;-73
2022/04/14 04:33:31;;;;;;;251.43;133.90;;;;;;;;;;5095553;28;20462;-73
2022/04/14 04:36:00;;;;;;;225.27;134.30;;;;;;;;;;5096731;28;20455;-72
2022/04/14 04:38:28;;;;;;;229.47;132.30;;;;;;;;;;5096137;28;20454;-73
2022/04/14 04:40:58;;;;;;;234.50;132.90;;;;;;;;;;5098989;28;20468;-74
2022/04/14 04:43:36;;;;;;;246.33;131.57;;;;;;;;;;5097818;28;20494;-73
2022/04/14 04:46:05;;;;;;;170.07;125.53;;;;;;;;;;5098577;28;20542;-73
2022/04/14 04:48:33;;;;;;;268.77;126.43;;;;;;;;;;5099710;28;20516;-73
2022/04/14 04:51:01;;;;;;;237.03;129.27;;;;;;;;;;5099240;28;20486;-73
2022/04/14 04:53:29;;;;;;;179.10;126.27;;;;;;;;;;5098969;28;20505;-73
2022/04/14 04:55:57;;;;;;;184.33;133.77;;;;;;;;;;5098768;28;20545;-73
2022/04/14 04:58:29;;;;;;;164.93;133.27;;;;;;;;;;5099449;28;20508;-73
2022/04/14 05:00:58;;;;;;;231.87;127.67;;;;;;;;;;5098202;28;20468;-73
2022/04/14 05:03:27;;;;;;;223.37;136.53;;;;;;;;;;5101247;28;20476;-73
2022/04/14 05:05:56;;;;;;;217.30;138.53;;;;;;;;;;5098574;28;20910;-73
2022/04/14 05:08:27;;;;;;;216.07;120.73;;;;;;;;;;5098390;28;20546;-72
2022/04/14 05:10:56;;;;;;;227.17;131.80;;;;;;;;;;5105658;28;20996;-74
2022/04/14 05:13:23;;;;;;;213.53;130.73;;;;;;;;;;5118649;28;20493;-72
2022/04/14 05:15:51;;;;;;;246.93;132.67;;;;;;;;;;5115458;28;20525;-72
2022/04/14 05:18:23;;;;;;;244.03;137.97;;;;;;;;;;5097549;28;20506;-73
2022/04/14 05:20:53;;;;;;;176.37;127.23;;;;;;;;;;5099231;28;20844;-73
2022/04/14 05:23:21;;;;;;;220.30;133.07;;;;;;;;;;5096989;28;20483;-72
2022/04/14 05:25:49;;;;;;;217.10;129.10;;;;;;;;;;5097082;28;20448;-72
2022/04/14 05:28:17;;;;;;;231.33;136.17;;;;;;;;;;5097966;28;20536;-72
2022/04/14 05:30:45;;;;;;;225.17;130.90;;;;;;;;;;5096770;28;20871;-72
2022/04/14 05:33:14;;;;;;;206.77;131.03;;;;;;;;;;5097724;28;20794;-72
2022/04/14 05:35:43;;;;;;;221.67;138.27;;;;;;;;;;5098063;28;20458;-73
2022/04/14 05:38:13;;;;;;;227.60;127.20;;;;;;;;;;5096280;28;20470;-72
2022/04/14 05:40:45;;;;;;;210.13;138.43;;;;;;;;;;5098339;28;20443;-73
2022/04/14 05:43:16;;;;;;;226.00;121.97;;;;;;;;;;5095455;28;20896;-72
2022/04/14 05:45:50;;;;;;;217.50;141.50;;;;;;;;;;5095936;28;20471;-72
2022/04/14 05:48:20;;;;;;;220.90;127.20;;;;;;;;;;5100420;28;20478;-72
2022/04/14 05:50:50;;;;;;;264.37;147.23;;;;;;;;;;5118202;28;20457;-72
2022/04/14 05:53:21;;;;;;;224.17;128.40;;;;;;;;;;5101883;28;20867;-73
2022/04/14 05:55:53;;;;;;;220.37;126.27;;;;;;;;;;5076837;28;20524;-74
2022/04/14 05:58:21;;;;;;;166.00;130.73;;;;;;;;;;5088005;28;20452;-73
2022/04/14 06:00:49;;;;;;;181.60;127.57;;;;;;;;;;5096755;28;20451;-72
2022/04/14 06:03:19;;;;;;;226.23;140.77;;;;;;;;;;5096775;28;20471;-72
2022/04/14 06:05:54;;;;;;;175.30;127.97;;;;;;;;;;5096329;28;20527;-74
2022/04/14 06:08:25;;;;;;;203.70;149.47;;;;;;;;;;5096214;28;20459;-73
2022/04/14 06:10:59;;;;;;;176.77;120.40;;;;;;;;;;5096350;28;20459;-73
2022/04/14 06:13:28;;;;;;;205.73;135.77;;;;;;;;;;5110336;27;20466;-71
2022/04/14 06:15:56;;;;;;;195.77;140.80;;;;;;;;;;5108314;28;20456;-72
2022/04/14 06:18:28;;;;;;;209.10;140.03;;;;;;;;;;5097738;28;20487;-72
2022/04/14 06:20:57;;;;;;;183.93;137.10;;;;;;;;;;5096218;28;20582;-72
2022/04/14 06:23:30;;;;;;;173.37;125.57;;;;;;;;;;5100366;28;20933;-73
2022/04/14 06:25:58;;;;;;;173.37;133.50;;;;;;;;;;5106831;28;20439;-73
2022/04/14 06:28:25;;;;;;;188.03;135.17;;;;;;;;;;5096138;28;20469;-73
2022/04/14 06:30:54;;;;;;;180.03;131.57;;;;;;;;;;5093974;28;20463;-73
2022/04/14 06:33:23;;;;;;;196.33;140.53;;;;;;;;;;5096915;28;20452;-72
2022/04/14 06:35:52;;;;;;;204.53;138.73;;;;;;;;;;5096073;28;20608;-72
2022/04/14 06:38:21;;;;;;;182.33;143.03;;;;;;;;;;5096521;28;21022;-72
2022/04/14 06:40:52;;;;;;;202.67;131.50;;;;;;;;;;5096651;28;21081;-72
2022/04/14 06:43:20;;;;;;;211.37;134.80;;;;;;;;;;5096803;28;20483;-72
2022/04/14 06:45:48;;;;;;;204.80;130.73;;;;;;;;;;5095157;28;20440;-71
2022/04/14 06:48:19;;;;;;;217.40;135.80;;;;;;;;;;5094355;28;20500;-73
2022/04/14 06:50:55;;;;;;;255.13;146.83;;;;;;;;;;5095363;28;20887;-72
2022/04/14 06:53:29;;;;;;;201.30;146.97;;;;;;;;;;5095449;28;20542;-71
2022/04/14 06:55:59;;;;;;;245.40;134.03;;;;;;;;;;5095340;28;20840;-71
2022/04/14 06:58:31;;;;;;;257.77;144.13;;;;;;;;;;5095948;28;20550;-71
2022/04/14 07:00:59;;;;;;;240.50;135.43;;;;;;;;;;5095218;28;20917;-71
2022/04/14 07:03:27;;;;;;;296.63;157.30;;;;;;;;;;5094647;28;20907;-71
2022/04/14 07:06:00;;;;;;;232.37;138.73;;;;;;;;;;5094309;28;20897;-73
2022/04/14 07:08:33;;;;;;;226.43;151.23;;;;;;;;;;5095350;28;20922;-71
2022/04/14 07:11:03;;;;;;;198.60;143.17;;;;;;;;;;5094040;28;20512;-72
2022/04/14 07:13:31;;;;;;;187.70;131.90;;;;;;;;;;5094858;28;20467;-70
2022/04/14 07:16:00;;;;;;;214.03;136.97;;;;;;;;;;5095755;28;20490;-71
2022/04/14 07:18:28;;;;;;;214.13;146.30;;;;;;;;;;5094372;28;20902;-71
2022/04/14 07:20:56;;;;;;;266.90;161.60;;;;;;;;;;5095022;28;20507;-70
2022/04/14 07:23:24;;;;;;;253.13;157.53;;;;;;;;;;5094932;28;20499;-72
2022/04/14 07:25:54;;;;;;;252.57;152.30;;;;;;;;;;5094501;28;20456;-71
2022/04/14 07:28:23;;;;;;;234.57;163.70;;;;;;;;;;5094995;28;20524;-72
2022/04/14 07:30:51;;;;;;;197.80;159.67;;;;;;;;;;5093995;28;20479;-72
2022/04/14 07:33:24;;;;;;;231.67;170.33;;;;;;;;;;5093435;28;20447;-71
2022/04/14 07:35:53;;;;;;;223.63;150.40;;;;;;;;;;5094224;28;20536;-71
2022/04/14 07:38:25;;;;;;;248.53;171.60;;;;;;;;;;5078245;28;20475;-72
2022/04/14 07:40:56;;;;;;;247.27;164.73;;;;;;;;;;5094712;28;20775;-71
2022/04/14 07:43:35;;;;;;;209.00;179.17;;;;;;;;;;5087592;28;20472;-73
2022/04/14 07:46:05;;;;;;;205.13;169.57;;;;;;;;;;5091106;28;20459;-71
2022/04/14 07:48:39;;;;;;;201.07;169.43;;;;;;;;;;5088316;28;20467;-72
2022/04/14 07:51:06;;;;;;;173.90;155.80;;;;;;;;;;5094600;28;20553;-72
2022/04/14 07:53:34;;;;;;;177.93;158.13;;;;;;;;;;5099177;28;20832;-72
2022/04/14 07:56:07;;;;;;;180.47;161.17;;;;;;;;;;5103471;28;20530;-73
2022/04/14 07:58:38;;;;;;;176.33;157.83;;;;;;;;;;5094511;28;20471;-73
2022/04/14 08:01:06;;;;;;;169.50;151.13;;;;;;;;;;5095384;28;20482;-72
2022/04/14 08:03:38;;;;;;;201.10;150.33;;;;;;;;;;5093638;28;20549;-72
2022/04/14 08:06:06;;;;;;;217.57;150.97;;;;;;;;;;5096650;28;20842;-72
2022/04/14 08:08:34;;;;;;;202.07;164.03;;;;;;;;;;5108620;28;20459;-71
2022/04/14 08:11:04;;;;;;;222.60;147.87;;;;;;;;;;5094225;28;20747;-72
2022/04/14 08:13:38;;;;;;;196.40;163.90;;;;;;;;;;5095172;28;20455;-72
2022/04/14 08:16:10;;;;;;;214.73;151.03;;;;;;;;;;5106581;28;20451;-72
2022/04/14 08:18:39;;;;;;;274.80;185.07;;;;;;;;;;5098246;28;20490;-72
2022/04/14 08:21:07;;;;;;;240.70;160.10;;;;;;;;;;5109597;28;20450;-72
2022/04/14 08:23:39;;;;;;;216.33;146.07;;;;;;;;;;5118421;28;20482;-73
2022/04/14 08:26:10;;;;;;;263.87;173.90;;;;;;;;;;5099136;28;20452;-72
2022/04/14 08:28:41;;;;;;;293.17;178.63;;;;;;;;;;5097987;28;21015;-73
2022/04/14 08:31:11;;;;;;;273.17;182.73;;;;;;;;;;5099014;28;20818;-73
2022/04/14 08:33:39;;;;;;;216.20;175.03;;;;;;;;;;5109840;28;20459;-73
2022/04/14 08:36:20;;;;;;;245.87;177.77;;;;;;;;;;5096999;28;20736;-75
2022/04/14 08:38:58;;;;;;;231.27;164.00;;;;;;;;;;5098152;28;20479;-75
2022/04/14 08:41:32;;;;;;;242.43;181.70;;;;;;;;;;5113282;28;20462;-75
2022/04/14 08:44:04;;;;;;;227.30;179.30;;;;;;;;;;5102442;28;20933;-73
2022/04/14 08:46:38;;;;;;;241.07;165.70;;;;;;;;;;5116454;28;20869;-72
2022/04/14 08:49:07;;;;;;;231.43;193.13;;;;;;;;;;5117699;28;20640;-73
2022/04/14 08:51:36;;;;;;;277.67;191.07;;;;;;;;;;5112112;28;20476;-73
2022/04/14 08:54:09;;;;;;;230.10;191.90;;;;;;;;;;5097351;28;20455;-72
2022/04/14 08:56:37;;;;;;;250.33;167.30;;;;;;;;;;5101875;28;20459;-71
2022/04/14 08:59:06;;;;;;;267.70;185.50;;;;;;;;;;5103611;28;20461;-73
2022/04/14 09:01:38;;;;;;;236.00;177.47;;;;;;;;;;5111776;28;20442;-73
2022/04/14 09:04:11;;;;;;;249.17;201.23;;;;;;;;;;5115801;28;20478;-72
2022/04/14 09:06:39;;;;;;;264.23;205.50;;;;;;;;;;5095433;28;20444;-73
2022/04/14 09:09:12;;;;;;;273.03;202.53;;;;;;;;;;5095781;28;20455;-73
2022/04/14 09:11:43;;;;;;;222.90;182.57;;;;;;;;;;5106695;28;20454;-73
2022/04/14 09:14:31;;;;;;;266.27;184.57;;;;;;;;;;5119238;28;20458;-73
2022/04/14 09:17:08;;;;;;;329.07;193.23;;;;;;;;;;5108953;28;20550;-73
2022/04/14 09:19:37;;;;;;;282.00;205.10;;;;;;;;;;5117182;28;20671;-74
2022/04/14 09:22:11;;;;;;;302.87;209.50;;;;;;;;;;5108298;28;20467;-74
2022/04/14 09:25:05;;;;;;;287.17;186.23;;;;;;;;;;5112596;28;20470;-73
2022/04/14 09:27:41;;;;;;;292.83;191.40;;;;;;;;;;5094730;28;20472;-74
2022/04/14 09:30:21;;;;;;;317.77;217.90;;;;;;;;;;5096602;28;20451;-74
2022/04/14 09:32:51;;;;;;;301.80;227.53;;;;;;;;;;5096392;28;20815;-73
2022/04/14 09:38:23;;;;;;;335.80;204.20;;;;;;;;;;5093959;28;20448;-73
2022/04/14 09:41:07;;;;;;;363.23;229.80;;;;;;;;;;5097106;28;20428;-73
2022/04/14 09:44:12;;;;;;;295.73;196.63;;;;;;;;;;5095413;28;20887;-72
2022/04/14 09:46:42;;;;;;;304.83;211.77;;;;;;;;;;5094112;28;20463;-73
2022/04/14 09:49:21;;;;;;;306.27;217.53;;;;;;;;;;5076474;28;20467;-71
2022/04/14 09:51:53;;;;;;;308.70;221.70;;;;;;;;;;5076374;28;20506;-72
2022/04/14 09:54:22;;;;;;;293.33;219.00;;;;;;;;;;5095861;28;20685;-72
2022/04/14 09:56:51;;;;;;;303.47;224.30;;;;;;;;;;5091233;28;20550;-72
2022/04/14 09:59:22;;;;;;;318.87;233.57;;;;;;;;;;5106393;28;20497;-72
2022/04/14 10:01:50;;;;;;;283.47;227.90;;;;;;;;;;5107977;28;20455;-72
2022/04/14 10:04:33;;;;;;;300.83;233.67;;;;;;;;;;5098748;28;20526;-73
2022/04/14 10:07:11;;;;;;;294.50;212.33;;;;;;;;;;5095573;28;20440;-72
2022/04/14 10:09:52;;;;;;;286.90;215.10;;;;;;;;;;5116259;28;20454;-72
2022/04/14 10:12:33;;;;;;;296.20;211.17;;;;;;;;;;5113490;28;20444;-72
2022/04/14 10:15:02;;;;;;;312.63;220.27;;;;;;;;;;5107497;28;20542;-72
2022/04/14 10:17:31;;;;;;;300.13;199.90;;;;;;;;;;5096365;28;20451;-72
2022/04/14 10:20:03;;;;;;;284.60;233.47;;;;;;;;;;5093793;28;20442;-72
2022/04/14 10:22:37;;;;;;;250.57;221.90;;;;;;;;;;5093942;28;20482;-72
2022/04/14 10:25:12;;;;;;;306.10;242.13;;;;;;;;;;5082273;28;20471;-72
2022/04/14 10:27:49;;;;;;;302.13;241.07;;;;;;;;;;5094662;28;20459;-72
2022/04/14 10:30:20;;;;;;;269.00;222.97;;;;;;;;;;5109899;28;20507;-73
2022/04/14 10:33:05;;;;;;;266.37;215.93;;;;;;;;;;5097205;28;20875;-72
2022/04/14 10:35:44;;;;;;;284.53;201.20;;;;;;;;;;5106164;28;20519;-73
2022/04/14 10:38:31;;;;;;;247.37;199.97;;;;;;;;;;5078147;28;20891;-73
2022/04/14 10:41:15;;;;;;;253.67;225.57;;;;;;;;;;5086757;28;20931;-73
2022/04/14 10:43:47;;;;;;;263.17;230.27;;;;;;;;;;5105316;28;21224;-71
2022/04/14 10:46:16;;;;;;;274.73;245.67;;;;;;;;;;5105022;28;20471;-71
2022/04/14 10:48:46;;;;;;;280.73;250.07;;;;;;;;;;5092745;28;20499;-71
2022/04/14 10:51:22;;;;;;;302.07;229.03;;;;;;;;;;5094354;28;20620;-71
2022/04/14 10:54:00;;;;;;;309.67;233.57;;;;;;;;;;5091524;28;20728;-72
2022/04/14 10:56:47;;;;;;;260.73;228.37;;;;;;;;;;5093520;28;20459;-72
2022/04/14 10:59:29;;;;;;;271.80;242.23;;;;;;;;;;5082809;28;20550;-72
2022/04/14 11:02:04;;;;;;;292.97;263.17;;;;;;;;;;5094360;28;20790;-72
2022/04/14 11:04:47;;;;;;;277.53;249.57;;;;;;;;;;5093348;28;20710;-72
2022/04/14 11:07:17;;;;;;;263.17;234.43;;;;;;;;;;5093303;28;20850;-71
2022/04/14 11:09:54;;;;;;;271.47;245.83;;;;;;;;;;5093730;28;20454;-71
2022/04/14 11:12:28;;;;;;;289.37;253.50;;;;;;;;;;5094175;28;20455;-71
2022/04/14 11:15:01;;;;;;;266.33;231.87;;;;;;;;;;5073478;28;20543;-71
2022/04/14 11:17:58;;;;;;;279.57;251.87;;;;;;;;;;5080799;28;20740;-72
2022/04/14 11:20:49;;;;;;;312.13;240.67;;;;;;;;;;5092187;28;20460;-72
2022/04/14 11:23:24;;;;;;;330.40;250.37;;;;;;;;;;5089775;28;20580;-71
2022/04/14 11:26:04;;;;;;;303.90;240.90;;;;;;;;;;5092888;28;20616;-71
2022/04/14 11:28:36;;;;;;;299.37;220.90;;;;;;;;;;5094007;28;20447;-72
2022/04/14 11:31:36;;;;;;;;;;;;;;;;;;;;;
2022/04/14 11:34:36;;;;;;;293.60;255.13;;;;;;;;;;5088890;28;20439;-74
2022/04/14 11:37:31;;;;;;;290.17;250.70;;;;;;;;;;5093187;28;20452;-71
2022/04/14 11:40:15;;;;;;;332.37;260.37;;;;;;;;;;5093255;28;20542;-72
2022/04/14 11:42:57;;;;;;;302.63;234.47;;;;;;;;;;5092592;28;20459;-71
2022/04/14 11:45:26;;;;;;;301.17;265.43;;;;;;;;;;5092086;28;20487;-71
2022/04/14 11:48:00;;;;;;;308.57;265.47;;;;;;;;;;5094089;28;20459;-71
2022/04/14 11:50:32;;;;;;;302.17;268.87;;;;;;;;;;5093022;28;20719;-72
2022/04/14 11:53:09;;;;;;;289.77;260.93;;;;;;;;;;5092588;28;20947;-73
2022/04/14 11:55:42;;;;;;;317.90;284.53;;;;;;;;;;5100107;28;20489;-73
2022/04/14 11:58:13;;;;;;;304.17;277.13;;;;;;;;;;5090592;28;20452;-71
2022/04/14 12:00:52;;;;;;;298.07;265.87;;;;;;;;;;5091216;28;20466;-72
2022/04/14 12:03:33;;;;;;;307.47;275.93;;;;;;;;;;5099808;28;20550;-71
2022/04/14 12:06:08;;;;;;;315.27;275.83;;;;;;;;;;5092458;28;20562;-73
2022/04/14 12:08:37;;;;;;;294.67;231.83;;;;;;;;;;5109202;28;20885;-71
2022/04/14 12:11:12;;;;;;;327.33;266.97;;;;;;;;;;5113189;28;20546;-72
2022/04/14 12:13:47;;;;;;;310.47;259.23;;;;;;;;;;5099899;28;21052;-71
2022/04/14 12:16:15;;;;;;;301.30;264.53;;;;;;;;;;5092289;28;20807;-71
2022/04/14 12:18:51;;;;;;;289.57;262.03;;;;;;;;;;5093849;28;20752;-71
2022/04/14 12:21:22;;;;;;;322.97;252.37;;;;;;;;;;5093264;28;20442;-71
2022/04/14 12:23:51;;;;;;;291.90;261.60;;;;;;;;;;5102707;28;20815;-71
2022/04/14 12:26:35;;;;;;;246.37;225.63;;;;;;;;;;5072725;28;20480;-71
2022/04/14 12:29:12;;;;;;;294.70;247.73;;;;;;;;;;5072723;28;20468;-72
2022/04/14 12:31:47;;;;;;;321.57;261.90;;;;;;;;;;5072302;28;20467;-72
2022/04/14 12:34:18;;;;;;;301.77;220.63;;;;;;;;;;5086510;28;20508;-71
2022/04/14 12:36:51;;;;;;;324.27;246.73;;;;;;;;;;5092956;28;20434;-71
2022/04/14 12:39:21;;;;;;;295.23;238.20;;;;;;;;;;5092681;28;20464;-72
2022/04/14 12:41:51;;;;;;;319.07;245.87;;;;;;;;;;5094039;28;20448;-72
2022/04/14 12:44:20;;;;;;;310.27;219.63;;;;;;;;;;5092797;28;20531;-73
2022/04/14 12:46:51;;;;;;;278.60;243.13;;;;;;;;;;5090105;28;20452;-72
2022/04/14 12:49:33;;;;;;;266.77;224.60;;;;;;;;;;5092598;28;20466;-72
2022/04/14 12:52:03;;;;;;;288.77;241.67;;;;;;;;;;5092258;28;20500;-70
2022/04/14 12:54:32;;;;;;;261.03;234.63;;;;;;;;;;5092187;28;20443;-72
2022/04/14 12:57:11;;;;;;;299.07;241.37;;;;;;;;;;5092674;28;20906;-72
2022/04/14 12:59:43;;;;;;;294.63;253.93;;;;;;;;;;5089885;28;20447;-73
2022/04/14 13:02:11;;;;;;;303.40;236.63;;;;;;;;;;5095471;28;20471;-72
2022/04/14 13:04:50;;;;;;;315.20;244.27;;;;;;;;;;5096204;28;20492;-72
2022/04/14 13:07:24;;;;;;;315.40;241.10;;;;;;;;;;5094374;28;20499;-72
2022/04/14 13:09:59;;;;;;;297.83;249.43;;;;;;;;;;5094555;28;20446;-72
2022/04/14 13:12:41;;;;;;;302.07;268.80;;;;;;;;;;5076265;28;20464;-72
2022/04/14 13:15:10;;;;;;;302.60;259.83;;;;;;;;;;5074880;28;20518;-74
2022/04/14 13:17:38;;;;;;;307.53;237.20;;;;;;;;;;5074283;28;20463;-73
2022/04/14 13:20:13;;;;;;;283.47;230.60;;;;;;;;;;5085057;28;20533;-72
2022/04/14 13:22:41;;;;;;;293.67;262.80;;;;;;;;;;5109506;28;20473;-74
2022/04/14 13:25:15;;;;;;;281.93;239.37;;;;;;;;;;5116206;28;20478;-72
2022/04/14 13:27:47;;;;;;;315.83;284.10;;;;;;;;;;5098094;28;20492;-72
2022/04/14 13:30:31;;;;;;;295.33;263.33;;;;;;;;;;5095088;28;20528;-72
2022/04/14 13:32:59;;;;;;;310.80;262.67;;;;;;;;;;5095739;28;20543;-72
2022/04/14 13:35:26;;;;;;;303.33;243.60;;;;;;;;;;5094700;28;20445;-73
2022/04/14 13:37:55;;;;;;;312.27;252.90;;;;;;;;;;5092450;28;20475;-72
2022/04/14 13:40:27;;;;;;;294.30;262.50;;;;;;;;;;5093782;28;20443;-73
2022/04/14 13:42:56;;;;;;;279.30;231.20;;;;;;;;;;5093689;28;20455;-72
2022/04/14 13:45:29;;;;;;;293.77;253.43;;;;;;;;;;5093575;28;20475;-73
2022/04/14 13:47:58;;;;;;;285.53;242.77;;;;;;;;;;5093205;28;20455;-71
2022/04/14 13:50:32;;;;;;;259.20;235.20;;;;;;;;;;5080763;28;20449;-73
2022/04/14 13:53:02;;;;;;;291.60;263.80;;;;;;;;;;5087459;28;20554;-73
2022/04/14 13:55:34;;;;;;;251.47;230.27;;;;;;;;;;5111619;28;20444;-72
2022/04/14 13:58:03;;;;;;;289.73;263.27;;;;;;;;;;5094253;28;20516;-74
2022/04/14 14:00:31;;;;;;;269.37;245.37;;;;;;;;;;5100646;28;20455;-71
2022/04/14 14:03:01;;;;;;;283.27;256.83;;;;;;;;;;5114208;28;20447;-73
2022/04/14 14:05:30;;;;;;;267.17;237.37;;;;;;;;;;5105377;28;20528;-73
2022/04/14 14:08:10;;;;;;;279.90;250.47;;;;;;;;;;5092760;28;20742;-72
2022/04/14 14:10:39;;;;;;;259.97;231.80;;;;;;;;;;5093246;28;20459;-72
2022/04/14 14:13:10;;;;;;;298.40;267.87;;;;;;;;;;5092779;28;20464;-72
2022/04/14 14:15:40;;;;;;;286.07;245.50;;;;;;;;;;5091109;28;21067;-72
2022/04/14 14:18:14;;;;;;;281.47;252.87;;;;;;;;;;5099121;28;20471;-72
2022/04/14 14:20:48;;;;;;;300.63;270.93;;;;;;;;;;5082612;28;20480;-73
2022/04/14 14:23:19;;;;;;;311.27;280.87;;;;;;;;;;5074524;28;20456;-73